Time;durP1;ratioP1;P1;durP2;ratioP2;P2;SDS_P1;SDS_P2;PMS_P1;PMS_P2;Temp;Humidity;BMP_temperature;BMP_pressure;BME280_temperature;BME280_humidity;BME280_pressure;Samples;Min_cycle;Max_cycle;Signal;HPM_P1;HPM_P2
2022/01/04 00:01:03;;;;;;;38.90;28.15;;;7.60;99.90;;;;;;5038629;28;20170;-70
2022/01/04 00:03:34;;;;;;;34.08;25.70;;;7.60;99.90;;;;;;5038532;28;20274;-71
2022/01/04 00:06:07;;;;;;;39.42;27.23;;;7.60;99.90;;;;;;5038590;28;20178;-68
2022/01/04 00:08:36;;;;;;;40.17;27.88;;;7.60;99.90;;;;;;5038405;28;20217;-69
2022/01/04 00:11:32;;;;;;;36.92;26.75;;;7.50;99.90;;;;;;5038403;28;20662;-68
2022/01/04 00:13:56;;;;;;;34.75;24.23;;;7.50;99.90;;;;;;5055249;28;20718;-67
2022/01/04 00:16:24;;;;;;;32.63;23.83;;;7.50;99.90;;;;;;5038535;28;20170;-68
2022/01/04 00:18:50;;;;;;;36.30;24.65;;;7.50;99.90;;;;;;5038474;28;20198;-68
2022/01/04 00:21:16;;;;;;;39.60;25.60;;;7.50;99.90;;;;;;5038268;28;20643;-70
2022/01/04 00:23:50;;;;;;;40.03;25.58;;;7.40;99.90;;;;;;5056219;28;20198;-73
2022/01/04 00:26:21;;;;;;;34.92;25.92;;;7.40;99.90;;;;;;5038465;28;20607;-70
2022/01/04 00:28:50;;;;;;;38.25;26.88;;;7.40;99.90;;;;;;5038443;28;20300;-71
2022/01/04 00:31:17;;;;;;;48.17;33.95;;;7.30;99.90;;;;;;5056058;28;20177;-70
2022/01/04 00:33:47;;;;;;;45.22;30.23;;;7.30;99.90;;;;;;5055834;28;20233;-71
2022/01/04 00:36:15;;;;;;;46.90;34.35;;;7.30;99.90;;;;;;5038112;28;20521;-70
2022/01/04 00:38:51;;;;;;;54.83;37.95;;;7.20;99.90;;;;;;5038037;28;20267;-71
2022/01/04 00:41:25;;;;;;;52.88;36.20;;;7.10;99.90;;;;;;5056054;28;20166;-68
2022/01/04 00:43:54;;;;;;;57.33;36.20;;;7.10;99.90;;;;;;5037983;28;20202;-70
2022/01/04 00:46:28;;;;;;;55.20;38.78;;;7.00;99.90;;;;;;5037909;28;20202;-70
2022/01/04 00:49:11;;;;;;;55.10;38.38;;;7.00;99.90;;;;;;5038095;28;20202;-73
2022/01/04 00:52:00;;;;;;;55.75;37.70;;;7.00;99.90;;;;;;5037305;28;20185;-73
2022/01/04 00:54:29;;;;;;;61.30;42.40;;;6.90;99.90;;;;;;5037866;28;20189;-71
2022/01/04 00:57:00;;;;;;;58.63;41.78;;;6.90;99.90;;;;;;5037770;28;20199;-73
2022/01/04 00:59:28;;;;;;;60.83;41.80;;;6.90;99.90;;;;;;5037746;28;20551;-70
2022/01/04 01:01:57;;;;;;;64.68;42.90;;;6.90;99.90;;;;;;5037449;28;20606;-73
2022/01/04 01:04:24;;;;;;;67.13;45.47;;;6.90;99.90;;;;;;5037611;28;20596;-73
2022/01/04 01:06:52;;;;;;;65.70;46.50;;;6.90;99.90;;;;;;5036794;28;20185;-71
2022/01/04 01:09:26;;;;;;;71.25;48.45;;;6.90;99.90;;;;;;5037531;28;20238;-70
2022/01/04 01:11:53;;;;;;;69.30;46.25;;;6.90;99.90;;;;;;5037479;28;20181;-71
2022/01/04 01:14:23;;;;;;;69.50;45.67;;;6.90;99.90;;;;;;5055493;28;20228;-70
2022/01/04 01:16:51;;;;;;;70.97;46.40;;;6.80;99.90;;;;;;5073763;28;20196;-68
2022/01/04 01:19:27;;;;;;;73.55;49.22;;;6.80;99.90;;;;;;5073887;28;20188;-70
2022/01/04 01:21:55;;;;;;;69.32;47.05;;;6.90;99.90;;;;;;5074025;28;20633;-70
2022/01/04 01:24:32;;;;;;;75.60;48.20;;;6.90;99.90;;;;;;5073792;28;20744;-68
2022/01/04 01:27:01;;;;;;;69.20;47.45;;;6.90;99.90;;;;;;5073834;28;20189;-70
2022/01/04 01:29:31;;;;;;;72.97;50.75;;;6.80;99.90;;;;;;5073993;28;20180;-68
2022/01/04 01:32:03;;;;;;;79.32;51.22;;;6.80;99.90;;;;;;5074948;28;20187;-71
2022/01/04 01:34:30;;;;;;;77.55;50.95;;;6.70;99.90;;;;;;5074970;28;20161;-68
2022/01/04 01:36:59;;;;;;;77.53;50.95;;;6.70;99.90;;;;;;5073758;28;20664;-70
2022/01/04 01:39:26;;;;;;;90.18;56.13;;;6.70;99.90;;;;;;5073615;28;20180;-68
2022/01/04 01:41:57;;;;;;;74.78;51.35;;;6.60;99.90;;;;;;5073288;28;20247;-70
2022/01/04 01:44:25;;;;;;;74.68;48.33;;;6.60;99.90;;;;;;5073605;28;20179;-70
2022/01/04 01:46:54;;;;;;;72.18;46.75;;;6.60;99.90;;;;;;5073330;28;20185;-68
2022/01/04 01:49:20;;;;;;;82.18;52.30;;;6.50;99.90;;;;;;5073284;28;20181;-70
2022/01/04 01:51:47;;;;;;;76.37;52.90;;;6.50;99.90;;;;;;5074588;28;20182;-68
2022/01/04 01:54:16;;;;;;;91.22;55.55;;;6.50;99.90;;;;;;5073309;28;20401;-68
2022/01/04 01:56:45;;;;;;;82.45;54.53;;;6.50;99.90;;;;;;5073116;28;20531;-71
2022/01/04 01:59:19;;;;;;;83.15;54.80;;;6.50;99.90;;;;;;5072705;28;20201;-70
2022/01/04 02:01:48;;;;;;;78.72;50.88;;;6.40;99.90;;;;;;5073019;28;20561;-68
2022/01/04 02:04:15;;;;;;;101.65;63.72;;;6.40;99.90;;;;;;5073362;28;20193;-68
2022/01/04 02:06:44;;;;;;;89.63;57.53;;;6.30;99.90;;;;;;5072860;28;20216;-70
2022/01/04 02:09:16;;;;;;;82.57;52.28;;;6.30;99.90;;;;;;5073142;28;20558;-68
2022/01/04 02:11:44;;;;;;;82.65;55.55;;;6.30;99.90;;;;;;5072873;28;20185;-70
2022/01/04 02:14:11;;;;;;;83.43;53.28;;;6.30;99.90;;;;;;5072415;28;20286;-68
2022/01/04 02:16:38;;;;;;;108.75;64.28;;;6.20;99.90;;;;;;5072611;28;20193;-70
2022/01/04 02:19:08;;;;;;;100.15;63.13;;;6.10;99.90;;;;;;5072642;28;20288;-68
2022/01/04 02:21:38;;;;;;;77.22;51.25;;;6.10;99.90;;;;;;5073107;28;20169;-68
2022/01/04 02:24:07;;;;;;;79.50;51.13;;;6.00;99.90;;;;;;5072694;28;20243;-71
2022/01/04 02:26:33;;;;;;;78.90;50.17;;;6.00;99.90;;;;;;5072635;28;20201;-68
2022/01/04 02:29:02;;;;;;;79.38;52.42;;;5.90;99.90;;;;;;5072732;28;20190;-68
2022/01/04 02:31:32;;;;;;;77.20;50.60;;;5.90;99.90;;;;;;5072611;28;20173;-68
2022/01/04 02:34:02;;;;;;;87.97;53.42;;;5.80;99.90;;;;;;5072547;28;20282;-67
2022/01/04 02:36:32;;;;;;;80.57;52.08;;;5.80;99.90;;;;;;5072414;28;20187;-68
2022/01/04 02:39:06;;;;;;;69.97;47.10;;;5.80;99.90;;;;;;5072875;28;20339;-68
2022/01/04 02:41:36;;;;;;;76.18;49.08;;;5.80;99.90;;;;;;5073889;28;20172;-70
2022/01/04 02:44:04;;;;;;;73.72;47.78;;;5.80;99.90;;;;;;5072548;28;20194;-70
2022/01/04 02:46:38;;;;;;;71.85;47.38;;;5.80;99.90;;;;;;5073759;28;20226;-68
2022/01/04 02:49:05;;;;;;;77.60;49.25;;;5.80;99.90;;;;;;5072892;28;20203;-70
2022/01/04 02:51:33;;;;;;;63.78;44.38;;;5.80;99.90;;;;;;5072299;28;20205;-71
2022/01/04 02:54:04;;;;;;;72.63;47.50;;;5.90;99.90;;;;;;5072384;28;20220;-68
2022/01/04 02:56:34;;;;;;;70.63;46.78;;;5.90;99.90;;;;;;5073708;28;20164;-70
2022/01/04 02:59:03;;;;;;;69.95;47.63;;;5.90;99.90;;;;;;5072354;28;20552;-70
2022/01/04 03:01:31;;;;;;;65.25;45.05;;;5.90;99.90;;;;;;5072306;28;20548;-68
2022/01/04 03:03:58;;;;;;;68.97;44.17;;;6.00;99.90;;;;;;5072415;28;20680;-68
2022/01/04 03:06:26;;;;;;;64.38;43.08;;;6.00;99.90;;;;;;5072244;28;20634;-70
2022/01/04 03:08:54;;;;;;;67.32;44.38;;;6.10;99.90;;;;;;5072227;28;20202;-68
2022/01/04 03:11:25;;;;;;;64.60;44.45;;;6.10;99.90;;;;;;5072040;28;20218;-68
2022/01/04 03:14:00;;;;;;;67.50;44.58;;;6.10;99.90;;;;;;5071801;28;20228;-70
2022/01/04 03:16:27;;;;;;;63.55;42.80;;;6.20;99.90;;;;;;5073591;28;20684;-68
2022/01/04 03:19:06;;;;;;;60.45;40.88;;;6.20;99.90;;;;;;5073397;28;20215;-68
2022/01/04 03:21:34;;;;;;;67.03;43.22;;;6.20;99.90;;;;;;5072197;28;20208;-68
2022/01/04 03:24:03;;;;;;;63.17;43.95;;;6.10;99.90;;;;;;5072225;28;20193;-70
2022/01/04 03:26:32;;;;;;;63.67;42.47;;;6.10;99.90;;;;;;5071956;28;20197;-71
2022/01/04 03:28:59;;;;;;;63.35;41.70;;;6.10;99.90;;;;;;5073330;28;20280;-70
2022/01/04 03:31:28;;;;;;;64.88;41.55;;;6.10;99.90;;;;;;5075897;28;20177;-71
2022/01/04 03:33:56;;;;;;;63.15;41.75;;;6.10;99.90;;;;;;5075740;28;20224;-68
2022/01/04 03:36:28;;;;;;;70.32;43.17;;;6.10;99.90;;;;;;5076076;28;20580;-68
2022/01/04 03:38:56;;;;;;;57.92;39.10;;;6.10;99.90;;;;;;5075845;28;20193;-68
2022/01/04 03:41:25;;;;;;;60.70;43.33;;;6.10;99.90;;;;;;5075754;28;20185;-70
2022/01/04 03:43:56;;;;;;;64.88;43.03;;;6.10;99.90;;;;;;5075819;28;20689;-70
2022/01/04 03:46:22;;;;;;;61.60;40.78;;;6.20;99.90;;;;;;5076004;28;20174;-68
2022/01/04 03:48:53;;;;;;;62.85;41.03;;;6.20;99.90;;;;;;5075631;28;20683;-70
2022/01/04 03:51:25;;;;;;;59.47;40.03;;;6.10;99.90;;;;;;5076064;28;20267;-70
2022/01/04 03:53:54;;;;;;;57.60;38.60;;;6.10;99.90;;;;;;5075395;28;20216;-68
2022/01/04 03:56:24;;;;;;;59.90;39.60;;;6.10;99.90;;;;;;5075421;28;20184;-70
2022/01/04 03:58:51;;;;;;;65.70;41.67;;;6.10;99.90;;;;;;5075464;28;20219;-70
2022/01/04 04:01:19;;;;;;;57.83;37.88;;;6.10;99.90;;;;;;5075479;28;20264;-68
2022/01/04 04:03:48;;;;;;;51.35;35.58;;;6.10;99.90;;;;;;5075326;28;20205;-68
2022/01/04 04:06:18;;;;;;;62.88;40.33;;;6.10;99.90;;;;;;5075287;28;20177;-68
2022/01/04 04:08:57;;;;;;;54.00;37.53;;;6.10;99.90;;;;;;5075264;28;20201;-70
2022/01/04 04:11:26;;;;;;;56.13;36.42;;;6.10;99.90;;;;;;5075116;28;20177;-70
2022/01/04 04:13:56;;;;;;;58.50;37.47;;;6.20;99.90;;;;;;5075002;28;20233;-73
2022/01/04 04:16:24;;;;;;;60.60;41.90;;;6.20;99.90;;;;;;5075082;28;20180;-73
2022/01/04 04:18:55;;;;;;;63.95;42.25;;;6.20;99.90;;;;;;5075310;28;20197;-72
2022/01/04 04:21:22;;;;;;;97.05;55.88;;;6.20;99.90;;;;;;5075159;28;20642;-71
2022/01/04 04:23:51;;;;;;;68.78;43.17;;;6.30;99.90;;;;;;5075102;28;20641;-70
2022/01/04 04:26:22;;;;;;;60.55;39.70;;;6.30;99.90;;;;;;5076258;28;20170;-71
2022/01/04 04:28:48;;;;;;;52.20;35.83;;;6.30;99.90;;;;;;5074893;28;20296;-70
2022/01/04 04:31:18;;;;;;;62.05;37.80;;;6.30;99.90;;;;;;5075120;28;20197;-72
2022/01/04 04:33:57;;;;;;;50.10;35.42;;;6.30;99.90;;;;;;5074758;28;20236;-72
2022/01/04 04:36:27;;;;;;;48.90;35.38;;;6.30;99.90;;;;;;5074874;28;20173;-71
2022/01/04 04:38:53;;;;;;;44.00;32.65;;;6.30;99.90;;;;;;5074793;28;20204;-70
2022/01/04 04:41:23;;;;;;;51.45;34.17;;;6.40;99.90;;;;;;5075820;28;20680;-68
2022/01/04 04:43:54;;;;;;;47.58;33.38;;;6.40;99.90;;;;;;5074686;28;20307;-68
2022/01/04 04:46:23;;;;;;;54.17;33.95;;;6.40;99.90;;;;;;5074664;28;20559;-68
2022/01/04 04:48:50;;;;;;;50.40;34.53;;;6.40;99.90;;;;;;5074805;28;20572;-70
2022/01/04 04:51:19;;;;;;;46.42;32.50;;;6.50;99.90;;;;;;5074470;28;20642;-68
2022/01/04 04:53:51;;;;;;;50.35;32.83;;;6.50;99.90;;;;;;5074275;28;20237;-71
2022/01/04 04:56:18;;;;;;;48.45;33.10;;;6.50;99.90;;;;;;5074145;28;20173;-70
2022/01/04 04:58:45;;;;;;;49.55;33.53;;;6.50;99.90;;;;;;5073725;28;20208;-70
2022/01/04 05:01:14;;;;;;;46.47;32.50;;;6.50;99.90;;;;;;5059835;28;20544;-68
2022/01/04 05:03:42;;;;;;;46.53;32.50;;;6.50;99.90;;;;;;5057289;28;20205;-71
2022/01/04 05:06:11;;;;;;;44.33;31.52;;;6.50;99.90;;;;;;5057444;28;20273;-68
2022/01/04 05:08:40;;;;;;;45.88;33.47;;;6.50;99.90;;;;;;5057768;28;20216;-68
2022/01/04 05:11:09;;;;;;;48.45;32.72;;;6.50;99.90;;;;;;5057586;28;20180;-68
2022/01/04 05:13:40;;;;;;;50.33;33.25;;;6.50;99.90;;;;;;5053530;28;20633;-68
2022/01/04 05:16:09;;;;;;;47.70;32.45;;;6.60;99.90;;;;;;5054058;28;20178;-70
2022/01/04 05:18:35;;;;;;;45.42;32.20;;;6.60;99.90;;;;;;5054128;28;20581;-68
2022/01/04 05:21:02;;;;;;;47.83;32.50;;;6.60;99.90;;;;;;5053972;28;20219;-70
2022/01/04 05:23:34;;;;;;;49.15;31.40;;;6.70;99.90;;;;;;5053720;28;20425;-71
2022/01/04 05:26:00;;;;;;;47.15;32.15;;;6.70;99.90;;;;;;5046252;28;20268;-68
2022/01/04 05:28:26;;;;;;;48.73;32.60;;;6.80;99.90;;;;;;5052398;28;20226;-68
2022/01/04 05:30:52;;;;;;;47.78;32.17;;;6.80;99.90;;;;;;5053629;28;20447;-70
2022/01/04 05:33:19;;;;;;;44.25;31.85;;;6.80;99.90;;;;;;5052767;28;20317;-70
2022/01/04 05:35:49;;;;;;;51.03;32.97;;;6.80;99.90;;;;;;5035414;28;20186;-71
2022/01/04 05:38:17;;;;;;;49.95;33.33;;;6.80;99.90;;;;;;5035712;28;20687;-71
2022/01/04 05:40:47;;;;;;;48.90;36.03;;;6.70;99.90;;;;;;5035537;28;20189;-68
2022/01/04 05:43:16;;;;;;;51.80;36.72;;;6.60;99.90;;;;;;5034786;28;20552;-68
2022/01/04 05:45:44;;;;;;;47.92;33.78;;;6.50;99.90;;;;;;5034719;28;20268;-68
2022/01/04 05:48:20;;;;;;;47.65;33.42;;;6.50;99.90;;;;;;5034494;28;20201;-70
2022/01/04 05:50:47;;;;;;;54.33;35.47;;;6.40;99.90;;;;;;5033476;28;20170;-68
2022/01/04 05:53:14;;;;;;;48.30;34.45;;;6.40;99.90;;;;;;5032178;28;20224;-68
2022/01/04 05:55:41;;;;;;;58.25;40.75;;;6.30;99.90;;;;;;5033756;28;20265;-73
2022/01/04 05:58:10;;;;;;;50.50;37.10;;;6.30;99.90;;;;;;5034243;28;20213;-75
2022/01/04 06:00:39;;;;;;;53.72;38.38;;;6.20;99.90;;;;;;5032183;28;20216;-70
2022/01/04 06:03:07;;;;;;;61.40;42.88;;;6.20;99.90;;;;;;5032392;28;20206;-70
2022/01/04 06:05:37;;;;;;;55.95;42.05;;;6.10;99.90;;;;;;5034187;28;20182;-73
2022/01/04 06:08:04;;;;;;;62.35;41.15;;;6.00;99.90;;;;;;5034128;28;20202;-70
2022/01/04 06:10:39;;;;;;;53.30;39.10;;;6.00;99.90;;;;;;5034369;28;20189;-70
2022/01/04 06:15:38;;;;;;;61.53;43.42;;;5.90;99.90;;;;;;5074305;28;20272;-68
2022/01/04 06:18:08;;;;;;;64.35;41.80;;;5.80;99.90;;;;;;5055633;28;20290;-68
2022/01/04 06:20:37;;;;;;;71.78;44.80;;;5.70;99.90;;;;;;5056507;28;20697;-68
2022/01/04 06:23:05;;;;;;;59.58;43.83;;;5.70;99.90;;;;;;5073759;28;20604;-68
2022/01/04 06:25:31;;;;;;;66.20;44.80;;;5.60;99.90;;;;;;5056084;28;20653;-70
2022/01/04 06:28:02;;;;;;;66.90;44.70;;;5.60;99.90;;;;;;5055184;28;20220;-70
2022/01/04 06:30:41;;;;;;;60.58;42.17;;;5.50;99.90;;;;;;5055671;28;20181;-68
2022/01/04 06:33:12;;;;;;;56.47;40.28;;;5.50;99.90;;;;;;5056075;28;20260;-68
2022/01/04 06:35:46;;;;;;;58.30;42.35;;;5.40;99.90;;;;;;5054894;28;20185;-70
2022/01/04 06:38:19;;;;;;;64.32;42.63;;;5.30;99.90;;;;;;5055714;28;20209;-68
2022/01/04 06:40:54;;;;;;;59.88;42.10;;;5.30;99.90;;;;;;5051741;28;20186;-71
2022/01/04 06:43:20;;;;;;;71.60;43.38;;;5.20;99.90;;;;;;5051209;28;20722;-68
2022/01/04 06:45:52;;;;;;;64.07;43.28;;;5.20;99.90;;;;;;5053499;28;20268;-71
2022/01/04 06:48:27;;;;;;;62.42;44.15;;;5.10;99.90;;;;;;5049397;28;20224;-68
2022/01/04 06:50:57;;;;;;;61.00;44.85;;;5.20;99.90;;;;;;5067754;28;20254;-67
2022/01/04 06:53:24;;;;;;;62.33;40.95;;;5.10;99.90;;;;;;5051990;28;20303;-68
2022/01/04 06:55:59;;;;;;;66.63;42.63;;;5.10;99.90;;;;;;5052035;28;20173;-70
2022/01/04 06:58:26;;;;;;;84.47;53.50;;;5.10;99.90;;;;;;5053077;28;20230;-71
2022/01/04 07:00:53;;;;;;;61.10;42.55;;;5.10;99.90;;;;;;5053112;28;20200;-67
2022/01/04 07:03:24;;;;;;;76.75;50.25;;;5.10;99.90;;;;;;5055866;28;20201;-67
2022/01/04 07:05:52;;;;;;;69.00;44.60;;;5.20;99.90;;;;;;5060289;28;20216;-68
2022/01/04 07:08:27;;;;;;;89.25;53.35;;;5.10;99.90;;;;;;5050994;28;20206;-70
2022/01/04 07:10:54;;;;;;;76.22;51.88;;;5.20;99.90;;;;;;5039628;28;20272;-71
2022/01/04 07:13:21;;;;;;;79.25;48.47;;;5.30;99.90;;;;;;5072572;28;20621;-68
2022/01/04 07:15:51;;;;;;;79.55;48.83;;;5.30;99.90;;;;;;5066326;28;20181;-71
2022/01/04 07:18:20;;;;;;;81.75;50.95;;;5.40;99.90;;;;;;5058183;28;20689;-68
2022/01/04 07:20:54;;;;;;;98.93;63.80;;;5.40;99.90;;;;;;5057080;28;20180;-70
2022/01/04 07:23:22;;;;;;;80.80;52.88;;;5.50;99.90;;;;;;5084250;28;20215;-68
2022/01/04 07:25:56;;;;;;;68.97;44.50;;;5.50;99.90;;;;;;5076463;28;20173;-68
2022/01/04 07:28:37;;;;;;;75.47;44.83;;;5.60;99.90;;;;;;5071665;28;20215;-72
2022/01/04 07:31:04;;;;;;;58.92;40.25;;;5.60;99.90;;;;;;5070504;28;20268;-68
2022/01/04 07:33:32;;;;;;;68.90;46.67;;;5.60;99.90;;;;;;5056301;28;20604;-67
2022/01/04 07:36:08;;;;;;;74.40;47.85;;;5.70;99.90;;;;;;5056614;28;20181;-70
2022/01/04 07:38:37;;;;;;;68.80;47.72;;;5.70;99.90;;;;;;5056250;28;20636;-68
2022/01/04 07:41:05;;;;;;;64.00;43.03;;;5.80;99.90;;;;;;5050466;28;20286;-67
2022/01/04 07:43:32;;;;;;;66.15;49.30;;;5.90;99.90;;;;;;5062753;28;20196;-68
2022/01/04 07:46:00;;;;;;;62.17;44.22;;;6.00;99.90;;;;;;5058018;28;20184;-68
2022/01/04 07:48:27;;;;;;;73.32;46.03;;;6.00;99.90;;;;;;5057243;28;20204;-68
2022/01/04 07:50:59;;;;;;;64.25;45.13;;;6.10;99.90;;;;;;5074335;28;20173;-71
2022/01/04 07:53:28;;;;;;;68.03;44.13;;;6.10;99.90;;;;;;5060478;28;20258;-70
2022/01/04 07:56:00;;;;;;;64.40;44.72;;;6.10;99.90;;;;;;5055963;28;20222;-70
2022/01/04 07:58:27;;;;;;;64.57;43.10;;;6.20;99.90;;;;;;5053564;28;21472;-70
2022/01/04 08:00:56;;;;;;;65.95;44.95;;;6.20;99.90;;;;;;5072710;28;20177;-71
2022/01/04 08:03:26;;;;;;;65.10;44.08;;;6.20;99.90;;;;;;5052865;28;20204;-69
2022/01/04 08:05:53;;;;;;;60.60;43.08;;;6.20;99.90;;;;;;5052469;28;20219;-70
2022/01/04 08:08:29;;;;;;;69.13;44.88;;;6.30;99.90;;;;;;5051597;28;20236;-68
2022/01/04 08:10:58;;;;;;;67.88;46.28;;;6.30;99.90;;;;;;5054784;28;20185;-70
2022/01/04 08:13:29;;;;;;;67.05;44.15;;;6.30;99.90;;;;;;5053605;28;20694;-68
2022/01/04 08:15:57;;;;;;;64.25;45.15;;;6.40;99.90;;;;;;5054500;28;20174;-70
2022/01/04 08:18:26;;;;;;;62.38;42.10;;;6.40;99.90;;;;;;5055210;28;20197;-73
2022/01/04 08:20:57;;;;;;;60.47;42.25;;;6.50;99.90;;;;;;5054782;28;20181;-70
2022/01/04 08:23:28;;;;;;;61.45;39.45;;;6.50;99.90;;;;;;5054097;28;20620;-70
2022/01/04 08:25:58;;;;;;;65.20;43.35;;;6.50;99.90;;;;;;5057938;28;20242;-73
2022/01/04 08:28:25;;;;;;;64.07;44.95;;;6.60;99.90;;;;;;5059445;28;20193;-71
2022/01/04 08:30:53;;;;;;;67.35;47.15;;;6.70;99.90;;;;;;5052945;28;20177;-70
2022/01/04 08:33:27;;;;;;;61.55;40.33;;;6.70;99.90;;;;;;5051769;28;20262;-73
2022/01/04 08:35:54;;;;;;;62.78;39.00;;;6.80;99.90;;;;;;5066311;28;20580;-71
2022/01/04 08:38:27;;;;;;;61.28;41.88;;;6.80;99.90;;;;;;5065793;28;20339;-68
2022/01/04 08:40:57;;;;;;;59.03;40.53;;;6.90;99.90;;;;;;5071080;28;20169;-71
2022/01/04 08:43:26;;;;;;;67.40;39.03;;;6.90;99.90;;;;;;5073531;28;20247;-68
2022/01/04 08:45:56;;;;;;;54.40;38.92;;;7.00;99.90;;;;;;5066635;28;20204;-68
2022/01/04 08:48:27;;;;;;;66.00;42.05;;;7.10;99.90;;;;;;5055179;28;20216;-71
2022/01/04 08:50:54;;;;;;;58.92;40.90;;;7.10;99.90;;;;;;5056027;28;20173;-68
2022/01/04 08:53:22;;;;;;;55.88;38.90;;;7.20;99.90;;;;;;5055285;28;21343;-72
2022/01/04 08:55:52;;;;;;;55.50;37.67;;;7.20;99.90;;;;;;5059378;28;20280;-71
2022/01/04 08:58:20;;;;;;;53.10;37.20;;;7.30;99.90;;;;;;5054721;28;20295;-67
2022/01/04 09:00:47;;;;;;;57.08;38.67;;;7.30;99.90;;;;;;5053454;28;20181;-72
2022/01/04 09:03:14;;;;;;;58.28;40.10;;;7.40;99.90;;;;;;5053385;28;20563;-68
2022/01/04 09:05:42;;;;;;;57.67;40.80;;;7.40;99.90;;;;;;5050831;28;20333;-70
2022/01/04 09:08:08;;;;;;;57.42;40.67;;;7.50;99.90;;;;;;5050893;28;20209;-71
2022/01/04 09:10:37;;;;;;;54.22;39.30;;;7.50;99.90;;;;;;5053329;28;20173;-70
2022/01/04 09:13:15;;;;;;;62.40;42.47;;;7.60;99.90;;;;;;5053378;28;20694;-71
2022/01/04 09:20:55;;;;;;;48.97;36.72;;;7.70;99.90;;;;;;5075288;28;20257;-68
2022/01/04 09:23:53;;;;;;;50.50;35.55;;;7.80;99.90;;;;;;5064132;28;20459;-70
2022/01/04 09:26:23;;;;;;;49.15;35.70;;;7.90;99.90;;;;;;5067961;28;20173;-71
2022/01/04 09:28:55;;;;;;;52.83;36.85;;;8.00;99.90;;;;;;5050442;28;20209;-68
2022/01/04 09:31:23;;;;;;;46.70;33.75;;;8.10;99.90;;;;;;5055526;28;20185;-69
2022/01/04 09:33:51;;;;;;;49.08;34.88;;;8.20;99.90;;;;;;5062623;28;20212;-68
2022/01/04 09:36:21;;;;;;;49.58;35.85;;;8.20;99.90;;;;;;5055830;28;20216;-72
2022/01/04 09:38:48;;;;;;;53.53;33.30;;;8.30;99.90;;;;;;5054779;28;20240;-71
2022/01/04 09:41:15;;;;;;;44.00;28.27;;;8.40;99.90;;;;;;5052932;28;20211;-68
2022/01/04 09:43:49;;;;;;;46.40;31.65;;;8.50;99.90;;;;;;5050291;28;20273;-71
2022/01/04 09:46:18;;;;;;;48.83;32.80;;;8.60;99.90;;;;;;5043982;28;20263;-68
2022/01/04 09:48:52;;;;;;;43.58;31.40;;;8.60;99.90;;;;;;5051855;28;20200;-72
2022/01/04 09:51:18;;;;;;;41.75;30.63;;;8.70;99.90;;;;;;5053754;28;20275;-72
2022/01/04 09:53:48;;;;;;;46.00;30.25;;;8.70;99.90;;;;;;5059031;28;20216;-72
2022/01/04 09:56:17;;;;;;;46.67;32.03;;;8.80;99.90;;;;;;5050683;28;20196;-71
2022/01/04 09:58:54;;;;;;;41.47;27.77;;;8.90;99.90;;;;;;5049654;28;20208;-72
2022/01/04 10:01:27;;;;;;;43.85;30.13;;;9.00;99.90;;;;;;5059662;28;20676;-68
2022/01/04 10:03:55;;;;;;;47.33;32.38;;;9.00;99.90;;;;;;5048741;28;20228;-73
2022/01/04 10:06:22;;;;;;;43.33;29.77;;;9.10;99.90;;;;;;5046544;28;20200;-71
2022/01/04 10:09:13;;;;;;;40.40;28.88;;;9.10;99.90;;;;;;5035604;28;20209;-71
2022/01/04 10:11:48;;;;;;;43.13;29.15;;;9.20;99.90;;;;;;5037431;28;20199;-72
2022/01/04 10:14:31;;;;;;;43.08;28.67;;;9.20;99.90;;;;;;5042308;28;20233;-69
2022/01/04 10:17:06;;;;;;;36.28;27.38;;;9.20;99.90;;;;;;5015162;28;20258;-69
2022/01/04 10:19:42;;;;;;;36.30;27.10;;;9.30;99.90;;;;;;5029392;28;20192;-71
2022/01/04 10:22:28;;;;;;;45.42;30.15;;;9.40;99.90;;;;;;5029957;28;20182;-72
2022/01/04 10:25:03;;;;;;;41.83;28.55;;;9.40;99.90;;;;;;5027665;28;20651;-72
2022/01/04 10:27:37;;;;;;;37.47;27.15;;;9.50;99.90;;;;;;5024678;28;20225;-69
2022/01/04 10:30:20;;;;;;;38.28;23.88;;;9.60;99.90;;;;;;5033369;28;20181;-72
2022/01/04 10:32:48;;;;;;;36.90;27.65;;;9.70;99.90;;;;;;5029925;28;20221;-69
2022/01/04 10:35:29;;;;;;;34.60;24.98;;;9.80;99.90;;;;;;5030184;28;20178;-69
2022/01/04 10:37:57;;;;;;;38.17;23.40;;;9.90;99.90;;;;;;5028882;28;20740;-72
2022/01/04 10:40:28;;;;;;;35.63;26.17;;;10.00;99.90;;;;;;5044477;28;20235;-71
2022/01/04 10:43:07;;;;;;;40.85;25.98;;;10.10;99.90;;;;;;5033016;28;20697;-71
2022/01/04 10:45:42;;;;;;;38.47;27.95;;;10.20;99.90;;;;;;5027595;28;20596;-72
2022/01/04 10:48:16;;;;;;;39.42;26.70;;;10.30;99.90;;;;;;5030143;28;20705;-72
2022/01/04 10:50:45;;;;;;;41.03;29.05;;;10.50;99.90;;;;;;5039638;28;20238;-69
2022/01/04 10:53:20;;;;;;;41.47;30.10;;;10.60;99.90;;;;;;5029864;28;20232;-71
2022/01/04 10:55:47;;;;;;;43.55;29.10;;;10.70;99.90;;;;;;5037832;28;20177;-72
2022/01/04 10:58:31;;;;;;;40.08;28.75;;;10.80;99.90;;;;;;5045667;28;20603;-71
2022/01/04 11:01:18;;;;;;;33.65;22.83;;;10.90;99.90;;;;;;5025624;28;20450;-73
2022/01/04 11:04:08;;;;;;;36.72;27.48;;;10.90;99.90;;;;;;5027815;28;20764;-72
2022/01/04 11:06:47;;;;;;;34.45;26.65;;;11.00;99.90;;;;;;5032330;28;20623;-72
2022/01/04 11:09:16;;;;;;;31.52;22.08;;;11.20;99.90;;;;;;5035949;28;20209;-72
2022/01/04 11:11:49;;;;;;;39.03;26.50;;;11.30;99.90;;;;;;5044676;28;20249;-68
2022/01/04 11:14:19;;;;;;;29.85;23.17;;;11.40;99.90;;;;;;5058508;28;20221;-71
2022/01/04 11:16:48;;;;;;;34.83;24.83;;;11.40;99.90;;;;;;5066374;28;20185;-69
2022/01/04 11:19:16;;;;;;;28.42;19.85;;;11.40;99.90;;;;;;5069649;28;20198;-69
2022/01/04 11:21:49;;;;;;;32.00;24.45;;;11.40;99.90;;;;;;5064742;28;20577;-69
2022/01/04 11:24:16;;;;;;;33.63;24.77;;;11.40;99.90;;;;;;5062112;28;20204;-72
2022/01/04 11:26:48;;;;;;;34.55;24.35;;;11.40;99.90;;;;;;5047994;28;20185;-69
2022/01/04 11:29:24;;;;;;;33.97;24.13;;;11.50;99.90;;;;;;5027862;28;20525;-69
2022/01/04 11:32:16;;;;;;;27.73;19.90;;;11.50;99.90;;;;;;5043592;28;20544;-72
2022/01/04 11:34:51;;;;;;;26.83;21.92;;;11.50;99.90;;;;;;5047519;28;20197;-71
2022/01/04 11:37:21;;;;;;;33.08;24.08;;;11.50;99.90;;;;;;5049830;28;20277;-69
2022/01/04 11:39:52;;;;;;;30.02;21.73;;;11.50;99.90;;;;;;5050034;28;20272;-72
2022/01/04 11:42:38;;;;;;;31.90;22.88;;;11.50;99.90;;;;;;5053370;28;20205;-69
2022/01/04 11:45:07;;;;;;;30.08;23.02;;;11.50;99.90;;;;;;5049538;28;20623;-70
2022/01/04 11:47:39;;;;;;;33.83;24.33;;;11.50;99.90;;;;;;5050639;28;20197;-72
2022/01/04 11:50:21;;;;;;;57.10;34.20;;;11.60;99.90;;;;;;5049827;28;20193;-72
2022/01/04 11:53:09;;;;;;;49.30;30.98;;;11.60;99.90;;;;;;5047177;28;20222;-72
2022/01/04 11:55:54;;;;;;;33.13;23.58;;;11.60;99.90;;;;;;5053639;28;20197;-69
2022/01/04 11:58:50;;;;;;;32.78;23.70;;;11.60;99.90;;;;;;5049513;28;20718;-70
2022/01/04 12:01:27;;;;;;;29.02;21.70;;;11.70;99.90;;;;;;5042917;28;20678;-69
2022/01/04 12:03:55;;;;;;;42.83;25.80;;;11.80;99.90;;;;;;5050477;28;20209;-71
2022/01/04 12:06:41;;;;;;;27.00;21.60;;;11.80;99.90;;;;;;5046517;28;20205;-69
2022/01/04 12:09:29;;;;;;;32.05;23.25;;;11.90;99.90;;;;;;5044948;28;20194;-70
2022/01/04 12:11:57;;;;;;;27.92;20.10;;;12.10;99.90;;;;;;5048018;28;20196;-72
2022/01/04 12:14:30;;;;;;;26.05;17.25;;;12.20;99.90;;;;;;5042250;28;20288;-70
2022/01/04 12:17:09;;;;;;;30.17;20.70;;;12.30;99.90;;;;;;5048821;28;20189;-72
2022/01/04 12:19:51;;;;;;;27.75;19.75;;;12.40;99.90;;;;;;5027575;28;20177;-69
2022/01/04 12:22:32;;;;;;;21.52;15.98;;;12.40;99.90;;;;;;5031132;28;20264;-69
2022/01/04 12:25:10;;;;;;;21.10;17.60;;;12.50;99.90;;;;;;5026880;28;20525;-71
2022/01/04 12:27:40;;;;;;;22.13;18.03;;;12.60;99.90;;;;;;5027873;28;20672;-69
2022/01/04 12:30:29;;;;;;;18.73;15.10;;;12.70;99.90;;;;;;5029714;28;20424;-69
2022/01/04 12:33:35;;;;;;;20.77;16.80;;;12.80;99.90;;;;;;5031912;28;20490;-71
2022/01/04 12:36:02;;;;;;;15.60;12.67;;;13.00;99.90;;;;;;5028924;28;20478;-69
2022/01/04 12:38:39;;;;;;;16.33;12.37;;;13.20;99.90;;;;;;5021125;28;20760;-69
2022/01/04 12:41:11;;;;;;;12.83;10.80;;;13.30;99.90;;;;;;5033583;28;20903;-72
2022/01/04 12:43:39;;;;;;;14.17;10.70;;;13.40;99.90;;;;;;5032280;28;20446;-72
2022/01/04 12:46:06;;;;;;;14.17;11.30;;;13.50;99.90;;;;;;5028866;28;20402;-69
2022/01/04 12:48:56;;;;;;;16.40;10.40;;;13.60;99.90;;;;;;5029804;28;20454;-69
2022/01/04 12:51:24;;;;;;;13.43;9.40;;;13.70;99.90;;;;;;5033655;28;20405;-68
2022/01/04 12:53:52;;;;;;;13.33;9.50;;;13.80;99.90;;;;;;5031646;28;20520;-70
2022/01/04 12:56:19;;;;;;;14.40;11.13;;;13.80;99.90;;;;;;5032252;28;20393;-69
2022/01/04 12:58:47;;;;;;;14.10;10.83;;;13.90;99.90;;;;;;5030124;28;20465;-72
2022/01/04 13:01:28;;;;;;;13.70;10.50;;;13.90;99.90;;;;;;5027302;28;20407;-70
2022/01/04 13:03:57;;;;;;;15.53;11.03;;;13.90;99.90;;;;;;5030062;28;20483;-69